Time;durP1;ratioP1;P1;durP2;ratioP2;P2;SDS_P1;SDS_P2;PMS_P1;PMS_P2;Temp;Humidity;BMP_temperature;BMP_pressure;BME280_temperature;BME280_humidity;BME280_pressure;Samples;Min_cycle;Max_cycle;Signal;HPM_P1;HPM_P2
2020/12/27 00:00:47;;;;;;;6.68;4.07;;;1.40;56.00;;;;;;5055710;28;20106;-71
2020/12/27 00:03:12;;;;;;;10.10;4.88;;;1.30;55.90;;;;;;5055282;28;20057;-71
2020/12/27 00:05:38;;;;;;;10.27;4.65;;;1.30;56.10;;;;;;5055776;28;20056;-71
2020/12/27 00:08:04;;;;;;;8.60;4.03;;;1.30;56.20;;;;;;5055286;28;20025;-71
2020/12/27 00:10:29;;;;;;;7.18;3.72;;;1.30;56.20;;;;;;5054012;28;20017;-71
2020/12/27 00:12:55;;;;;;;10.40;5.05;;;1.30;56.10;;;;;;5054280;28;20021;-71
2020/12/27 00:15:21;;;;;;;8.77;4.90;;;1.30;56.10;;;;;;5055218;28;20025;-71
2020/12/27 00:17:47;;;;;;;9.07;4.72;;;1.20;56.20;;;;;;5055715;28;20138;-71
2020/12/27 00:20:13;;;;;;;10.88;5.88;;;1.20;56.40;;;;;;5055376;28;20021;-71
2020/12/27 00:22:38;;;;;;;9.70;4.82;;;1.20;56.50;;;;;;5055055;28;20486;-71
2020/12/27 00:25:05;;;;;;;9.52;5.38;;;1.20;56.50;;;;;;5054772;28;20402;-71
2020/12/27 00:27:30;;;;;;;8.73;4.95;;;1.20;56.60;;;;;;5053566;28;20466;-71
2020/12/27 00:29:56;;;;;;;7.50;4.30;;;1.20;56.60;;;;;;5054924;28;20025;-71
2020/12/27 00:32:29;;;;;;;9.60;4.75;;;1.20;56.50;;;;;;5054844;28;20027;-71
2020/12/27 00:34:55;;;;;;;7.35;4.50;;;1.10;56.40;;;;;;5055344;28;20466;-71
2020/12/27 00:37:22;;;;;;;8.93;4.55;;;1.10;56.30;;;;;;5055000;28;20112;-71
2020/12/27 00:39:53;;;;;;;7.97;4.60;;;1.10;56.20;;;;;;5053510;28;20044;-71
2020/12/27 00:42:19;;;;;;;7.65;4.60;;;1.10;56.30;;;;;;5053759;28;20481;-71
2020/12/27 00:44:45;;;;;;;9.40;4.88;;;1.10;56.20;;;;;;5054726;28;20028;-71
2020/12/27 00:47:11;;;;;;;6.20;4.28;;;1.10;56.20;;;;;;5053293;28;20150;-71
2020/12/27 00:49:36;;;;;;;15.43;7.53;;;1.00;56.10;;;;;;5052623;28;20108;-71
2020/12/27 00:52:02;;;;;;;12.50;8.73;;;1.00;56.30;;;;;;5054592;28;20051;-71
2020/12/27 00:54:28;;;;;;;9.48;6.20;;;1.00;56.50;;;;;;5053307;28;20064;-71
2020/12/27 00:56:54;;;;;;;11.43;7.05;;;1.00;56.50;;;;;;5054458;28;20451;-71
2020/12/27 00:59:20;;;;;;;10.43;5.68;;;1.00;56.60;;;;;;5054452;28;20036;-71
2020/12/27 01:01:46;;;;;;;10.93;5.57;;;1.00;56.80;;;;;;5054370;28;20029;-71
2020/12/27 01:04:12;;;;;;;8.43;4.93;;;1.00;56.90;;;;;;5054377;28;20028;-71
2020/12/27 01:06:38;;;;;;;10.23;5.25;;;1.00;57.00;;;;;;5052899;28;20033;-71
2020/12/27 01:09:05;;;;;;;10.15;5.35;;;1.00;57.00;;;;;;5054229;28;20074;-71
2020/12/27 01:11:32;;;;;;;10.43;5.57;;;1.00;57.00;;;;;;5054135;28;20051;-71
2020/12/27 01:13:57;;;;;;;10.40;5.38;;;0.90;56.90;;;;;;5054083;28;20390;-71
2020/12/27 01:16:23;;;;;;;11.98;6.40;;;1.00;57.00;;;;;;5054101;28;20025;-71
2020/12/27 01:18:50;;;;;;;9.48;5.35;;;1.00;57.10;;;;;;5052719;28;20588;-71
2020/12/27 01:21:27;;;;;;;11.25;5.43;;;1.00;57.10;;;;;;5053907;28;20390;-71
2020/12/27 01:23:53;;;;;;;10.73;5.43;;;0.90;57.00;;;;;;5054243;28;20462;-71
2020/12/27 01:26:32;;;;;;;9.60;4.80;;;0.90;56.90;;;;;;5052388;28;20494;-71
2020/12/27 01:28:59;;;;;;;11.48;6.28;;;0.90;57.00;;;;;;5053850;28;20029;-71
2020/12/27 01:31:25;;;;;;;9.77;5.72;;;0.90;56.90;;;;;;5053784;28;20036;-71
2020/12/27 01:33:51;;;;;;;9.23;5.82;;;0.90;56.90;;;;;;5053854;28;20021;-71
2020/12/27 01:36:31;;;;;;;7.82;4.75;;;0.90;56.90;;;;;;5052510;28;20565;-71
2020/12/27 01:38:58;;;;;;;8.90;5.18;;;0.90;56.90;;;;;;5053752;28;20514;-71
2020/12/27 01:41:24;;;;;;;9.38;5.38;;;0.90;56.90;;;;;;5054232;28;20021;-71
2020/12/27 01:44:01;;;;;;;9.32;5.60;;;0.90;56.90;;;;;;5053914;28;20051;-71
2020/12/27 01:46:28;;;;;;;10.07;5.45;;;0.80;56.90;;;;;;5053524;28;20025;-71
2020/12/27 01:48:54;;;;;;;9.43;5.20;;;0.80;56.90;;;;;;5053581;28;20479;-71
2020/12/27 01:51:20;;;;;;;11.45;4.57;;;0.80;56.90;;;;;;5053798;28;20021;-71
2020/12/27 01:53:46;;;;;;;8.55;5.43;;;0.80;56.90;;;;;;5053533;28;20379;-71
2020/12/27 01:56:13;;;;;;;14.13;5.30;;;0.80;56.90;;;;;;5053736;28;20055;-71
2020/12/27 01:58:41;;;;;;;8.32;4.75;;;0.80;56.80;;;;;;5053459;28;20067;-71
2020/12/27 02:01:07;;;;;;;9.90;4.97;;;0.70;56.80;;;;;;5051967;28;20486;-71
2020/12/27 02:03:33;;;;;;;12.45;5.30;;;0.70;56.80;;;;;;5053464;28;20108;-71
2020/12/27 02:05:59;;;;;;;11.75;5.85;;;0.70;56.80;;;;;;5053270;28;20104;-71
2020/12/27 02:08:26;;;;;;;10.98;5.55;;;0.70;56.90;;;;;;5053602;28;20099;-71
2020/12/27 02:10:52;;;;;;;11.05;5.82;;;0.70;56.90;;;;;;5052077;28;20025;-71
2020/12/27 02:13:17;;;;;;;13.57;6.45;;;0.70;57.00;;;;;;5052058;28;20113;-71
2020/12/27 02:15:43;;;;;;;14.32;7.05;;;0.70;57.20;;;;;;5053601;28;20478;-71
2020/12/27 02:18:09;;;;;;;16.30;7.55;;;0.70;57.30;;;;;;5053517;28;20048;-71
2020/12/27 02:20:35;;;;;;;15.48;7.38;;;0.60;57.40;;;;;;5053138;28;20103;-71
2020/12/27 02:23:01;;;;;;;17.08;8.43;;;0.70;57.70;;;;;;5053192;28;20029;-71
2020/12/27 02:25:26;;;;;;;35.45;17.08;;;0.60;57.60;;;;;;5052882;28;20060;-71
2020/12/27 02:27:52;;;;;;;18.92;10.00;;;0.60;57.60;;;;;;5053172;28;20028;-71
2020/12/27 02:30:18;;;;;;;23.30;13.55;;;0.60;57.50;;;;;;5053726;28;20505;-71
2020/12/27 02:32:44;;;;;;;19.77;12.35;;;0.60;57.50;;;;;;5053216;28;20147;-71
2020/12/27 02:35:10;;;;;;;15.43;9.05;;;0.60;57.70;;;;;;5053343;28;20470;-71
2020/12/27 02:37:36;;;;;;;13.70;7.88;;;0.60;57.80;;;;;;5053130;28;20112;-71
2020/12/27 02:40:02;;;;;;;14.95;7.55;;;0.60;57.80;;;;;;5053071;28;20083;-71
2020/12/27 02:42:28;;;;;;;17.52;7.65;;;0.60;57.90;;;;;;5053021;28;20033;-71
2020/12/27 02:47:28;;;;;;;15.25;7.68;;;0.50;58.00;;;;;;5052962;28;20438;-71
2020/12/27 02:49:54;;;;;;;16.83;8.30;;;0.50;58.00;;;;;;5051673;28;20029;-71
2020/12/27 02:52:20;;;;;;;12.90;6.95;;;0.50;58.20;;;;;;5053172;28;20017;-72
2020/12/27 02:54:45;;;;;;;13.80;6.60;;;0.50;58.30;;;;;;5052883;28;20099;-71
2020/12/27 02:57:11;;;;;;;13.45;6.93;;;0.50;58.30;;;;;;5053110;28;20033;-71
2020/12/27 02:59:37;;;;;;;12.50;7.03;;;0.50;58.30;;;;;;5052798;28;20029;-71
2020/12/27 03:02:02;;;;;;;12.20;6.18;;;0.50;58.30;;;;;;5051545;28;20029;-71
2020/12/27 03:04:28;;;;;;;10.48;5.35;;;0.50;58.30;;;;;;5053034;28;20017;-71
2020/12/27 03:06:54;;;;;;;13.02;6.82;;;0.50;58.20;;;;;;5052710;28;20033;-71
2020/12/27 03:09:19;;;;;;;10.43;5.93;;;0.50;58.20;;;;;;5052739;28;20064;-71
2020/12/27 03:11:45;;;;;;;15.57;5.95;;;0.50;58.10;;;;;;5052775;28;20490;-71
2020/12/27 03:14:11;;;;;;;9.85;5.38;;;0.50;58.00;;;;;;5055759;28;20049;-71
2020/12/27 03:16:38;;;;;;;10.07;5.20;;;0.50;57.90;;;;;;5056322;28;20423;-71
2020/12/27 03:19:04;;;;;;;9.60;5.28;;;0.50;57.90;;;;;;5055074;28;20085;-71
2020/12/27 03:21:29;;;;;;;7.70;4.43;;;0.50;57.80;;;;;;5056307;28;20024;-71
2020/12/27 03:23:55;;;;;;;9.80;5.40;;;0.50;57.80;;;;;;5056275;28;20027;-72
2020/12/27 03:26:21;;;;;;;9.00;4.70;;;0.50;57.70;;;;;;5054682;28;20055;-71
2020/12/27 03:28:47;;;;;;;10.57;5.75;;;0.50;57.70;;;;;;5056692;28;20166;-71
2020/12/27 03:31:13;;;;;;;9.90;5.65;;;0.50;57.70;;;;;;5056110;28;20021;-71
2020/12/27 03:33:38;;;;;;;10.20;5.07;;;0.40;57.80;;;;;;5056065;28;20122;-71
2020/12/27 03:36:04;;;;;;;8.25;5.13;;;0.40;57.90;;;;;;5056323;28;20053;-71
2020/12/27 03:38:30;;;;;;;13.15;6.65;;;0.40;57.90;;;;;;5056000;28;20025;-71
2020/12/27 03:40:56;;;;;;;11.85;5.80;;;0.40;58.00;;;;;;5055961;28;20025;-71
2020/12/27 03:43:21;;;;;;;11.63;5.70;;;0.40;58.10;;;;;;5055870;28;20025;-71
2020/12/27 03:45:47;;;;;;;9.93;4.80;;;0.50;58.20;;;;;;5054576;28;20043;-71
2020/12/27 03:48:13;;;;;;;8.18;4.40;;;0.50;58.20;;;;;;5055835;28;20410;-72
2020/12/27 03:50:39;;;;;;;7.32;4.50;;;0.50;58.10;;;;;;5055808;28;20521;-71
2020/12/27 03:53:05;;;;;;;9.90;4.53;;;0.50;58.00;;;;;;5055655;28;20024;-71
2020/12/27 03:55:31;;;;;;;7.70;4.97;;;0.50;58.00;;;;;;5055669;28;20033;-71
2020/12/27 03:57:57;;;;;;;9.43;5.03;;;0.50;58.00;;;;;;5054258;28;20469;-71
2020/12/27 04:00:23;;;;;;;9.95;4.60;;;0.50;58.00;;;;;;5055867;28;20020;-71
2020/12/27 04:02:49;;;;;;;10.55;5.10;;;0.40;58.00;;;;;;5055709;28;20087;-71
2020/12/27 04:05:15;;;;;;;10.13;5.60;;;0.50;58.10;;;;;;5055440;28;20017;-71
2020/12/27 04:07:40;;;;;;;11.05;5.93;;;0.40;58.20;;;;;;5055642;28;20032;-71
2020/12/27 04:10:07;;;;;;;8.23;4.72;;;0.40;58.30;;;;;;5055354;28;20024;-71
2020/12/27 04:12:33;;;;;;;9.50;5.22;;;0.40;58.40;;;;;;5055608;28;20017;-71
2020/12/27 04:14:58;;;;;;;8.23;4.90;;;0.40;58.30;;;;;;5055511;28;20367;-71
2020/12/27 04:17:24;;;;;;;7.07;4.25;;;0.40;58.30;;;;;;5055086;28;20033;-71
2020/12/27 04:19:50;;;;;;;10.90;4.40;;;0.40;58.20;;;;;;5055020;28;20048;-71
2020/12/27 04:22:16;;;;;;;9.45;4.60;;;0.40;58.10;;;;;;5055146;28;20364;-71
2020/12/27 04:24:41;;;;;;;13.27;7.32;;;0.40;58.10;;;;;;5053841;28;20029;-72
2020/12/27 04:27:08;;;;;;;12.52;7.18;;;0.40;58.10;;;;;;5055305;28;20025;-71
2020/12/27 04:29:34;;;;;;;10.18;6.35;;;0.40;58.10;;;;;;5053748;28;20111;-71
2020/12/27 04:31:59;;;;;;;15.57;7.20;;;0.40;58.20;;;;;;5055001;28;20021;-71
2020/12/27 04:34:25;;;;;;;13.68;6.95;;;0.40;58.50;;;;;;5055181;28;20025;-71
2020/12/27 04:36:51;;;;;;;9.43;5.82;;;0.40;58.50;;;;;;5054859;28;20025;-72
2020/12/27 04:39:17;;;;;;;7.40;4.60;;;0.40;58.50;;;;;;5055102;28;20138;-71
2020/12/27 04:41:44;;;;;;;10.18;5.55;;;0.40;58.50;;;;;;5054812;28;20052;-71
2020/12/27 04:44:10;;;;;;;10.93;5.25;;;0.40;58.50;;;;;;5054967;28;20068;-71
2020/12/27 04:46:39;;;;;;;9.23;5.15;;;0.40;58.50;;;;;;5054592;28;20433;-71
2020/12/27 04:49:07;;;;;;;9.07;4.60;;;0.40;58.40;;;;;;5054649;28;20025;-71
2020/12/27 04:51:33;;;;;;;10.98;4.88;;;0.40;58.30;;;;;;5054558;28;20047;-71
2020/12/27 04:53:59;;;;;;;7.53;5.05;;;0.40;58.20;;;;;;5053274;28;20036;-71
2020/12/27 04:56:26;;;;;;;9.52;5.28;;;0.40;58.20;;;;;;5054472;28;20021;-71
2020/12/27 04:58:54;;;;;;;8.48;5.15;;;0.40;58.30;;;;;;5053212;28;20021;-71
2020/12/27 05:01:20;;;;;;;9.40;4.93;;;0.40;58.30;;;;;;5054403;28;20104;-71
2020/12/27 05:03:47;;;;;;;8.95;4.57;;;0.40;58.20;;;;;;5054300;28;20025;-71
2020/12/27 05:06:14;;;;;;;12.20;4.90;;;0.40;58.20;;;;;;5054228;28;20025;-71
2020/12/27 05:08:39;;;;;;;6.15;4.47;;;0.40;58.20;;;;;;5054226;28;20017;-71
2020/12/27 05:11:05;;;;;;;7.68;4.03;;;0.40;58.30;;;;;;5054726;28;20023;-71
2020/12/27 05:13:31;;;;;;;8.07;4.68;;;0.40;58.30;;;;;;5054151;28;20075;-71
2020/12/27 05:16:05;;;;;;;6.32;3.45;;;0.40;58.30;;;;;;5054147;28;20040;-71
2020/12/27 05:18:31;;;;;;;4.85;3.00;;;0.40;58.20;;;;;;5054392;28;20029;-71
2020/12/27 05:20:57;;;;;;;5.00;3.35;;;0.40;57.90;;;;;;5054068;28;20055;-71
2020/12/27 05:23:26;;;;;;;5.97;3.30;;;0.40;57.90;;;;;;5053990;28;20028;-71
2020/12/27 05:25:53;;;;;;;5.85;3.35;;;0.40;57.80;;;;;;5053847;28;20075;-71
2020/12/27 05:28:19;;;;;;;5.55;3.65;;;0.40;57.80;;;;;;5054194;28;20017;-71
2020/12/27 05:30:46;;;;;;;6.60;3.42;;;0.40;57.80;;;;;;5054198;28;20371;-71
2020/12/27 05:33:14;;;;;;;4.80;2.85;;;0.30;57.80;;;;;;5053844;28;20033;-71
2020/12/27 05:35:40;;;;;;;6.38;3.47;;;0.30;57.80;;;;;;5053802;28;20466;-71
2020/12/27 05:38:08;;;;;;;7.25;4.03;;;0.30;57.90;;;;;;5053708;28;20463;-71
2020/12/27 05:40:39;;;;;;;5.90;3.10;;;0.30;57.90;;;;;;5053718;28;20501;-71
2020/12/27 05:43:24;;;;;;;5.28;3.15;;;0.30;58.00;;;;;;5053724;28;20032;-71
2020/12/27 05:45:52;;;;;;;4.68;2.50;;;0.30;58.00;;;;;;5053528;28;20163;-71
2020/12/27 05:48:18;;;;;;;4.65;3.20;;;0.30;57.90;;;;;;5053644;28;20017;-71
2020/12/27 05:50:44;;;;;;;6.53;3.67;;;0.20;57.90;;;;;;5054113;28;20028;-71
2020/12/27 05:53:10;;;;;;;5.03;3.28;;;0.20;57.90;;;;;;5053619;28;20025;-71
2020/12/27 05:55:39;;;;;;;7.53;3.10;;;0.20;57.90;;;;;;5053402;28;20032;-71
2020/12/27 05:58:10;;;;;;;5.13;3.40;;;0.20;57.90;;;;;;5053499;28;20017;-71
2020/12/27 06:00:36;;;;;;;6.07;3.72;;;0.20;58.00;;;;;;5052252;28;20076;-71
2020/12/27 06:03:02;;;;;;;22.15;9.73;;;0.20;58.00;;;;;;5053756;28;20068;-71
2020/12/27 06:05:58;;;;;;;73.05;21.35;;;0.20;58.10;;;;;;5053394;28;20470;-71
2020/12/27 06:08:30;;;;;;;12.60;6.45;;;0.20;58.10;;;;;;5053396;28;20019;-71
2020/12/27 06:11:04;;;;;;;7.07;4.55;;;0.20;58.20;;;;;;5053363;28;20013;-71
2020/12/27 06:13:49;;;;;;;8.90;4.15;;;0.20;58.30;;;;;;5053292;28;20524;-71
2020/12/27 06:16:23;;;;;;;6.60;4.22;;;0.20;58.20;;;;;;5053525;28;20401;-71
2020/12/27 06:19:07;;;;;;;5.57;4.38;;;0.10;58.10;;;;;;5053589;28;20021;-71
2020/12/27 06:21:40;;;;;;;7.03;3.92;;;0.10;58.30;;;;;;5053150;28;20028;-71
2020/12/27 06:24:12;;;;;;;4.90;3.28;;;0.10;58.40;;;;;;5053275;28;20036;-71
2020/12/27 06:26:38;;;;;;;6.15;3.78;;;0.10;58.30;;;;;;5053034;28;20045;-71
2020/12/27 06:29:04;;;;;;;6.47;3.83;;;0.10;58.20;;;;;;5053194;28;20029;-72
2020/12/27 06:31:31;;;;;;;5.78;3.70;;;0.10;58.30;;;;;;5053070;28;20071;-71
2020/12/27 06:33:57;;;;;;;7.72;4.53;;;0.10;58.30;;;;;;5053338;28;20032;-71
2020/12/27 06:36:33;;;;;;;7.38;3.80;;;0.10;58.50;;;;;;5053099;28;20025;-71
2020/12/27 06:38:59;;;;;;;10.27;4.40;;;0.10;58.70;;;;;;5053324;28;20082;-71
2020/12/27 06:41:25;;;;;;;9.10;4.15;;;0.10;58.60;;;;;;5053386;28;20425;-71
2020/12/27 06:43:50;;;;;;;5.97;3.67;;;0.10;58.60;;;;;;5053092;28;20036;-71
2020/12/27 06:46:26;;;;;;;6.53;3.47;;;0.00;58.50;;;;;;5053343;28;20084;-71
2020/12/27 06:49:11;;;;;;;6.10;3.03;;;0.00;58.50;;;;;;5056251;28;20378;-71
2020/12/27 06:51:43;;;;;;;6.88;3.42;;;0.00;58.40;;;;;;5058135;28;20040;-71
2020/12/27 06:54:09;;;;;;;6.15;3.33;;;0.00;58.30;;;;;;5058170;28;20052;-71
2020/12/27 06:56:40;;;;;;;6.53;3.40;;;0.00;58.30;;;;;;5057800;28;20028;-71
2020/12/27 06:59:06;;;;;;;7.68;3.78;;;0.00;58.40;;;;;;5056402;28;20031;-71
2020/12/27 07:01:32;;;;;;;7.22;4.57;;;0.00;58.40;;;;;;5057398;28;20032;-71
2020/12/27 07:04:12;;;;;;;7.38;3.67;;;0.00;58.60;;;;;;5057331;28;20385;-71
2020/12/27 07:06:43;;;;;;;7.15;4.00;;;0.00;58.70;;;;;;5056835;28;20473;-71
2020/12/27 07:09:09;;;;;;;11.45;4.82;;;0.00;58.80;;;;;;5055233;28;20021;-71
2020/12/27 07:11:35;;;;;;;10.43;5.55;;;0.00;58.80;;;;;;5056398;28;20021;-71
2020/12/27 07:14:02;;;;;;;10.93;5.47;;;0.00;58.90;;;;;;5056436;28;20017;-71
2020/12/27 07:16:42;;;;;;;8.30;5.32;;;0.00;59.30;;;;;;5056888;28;20025;-71
2020/12/27 07:19:11;;;;;;;12.15;5.50;;;0.00;59.70;;;;;;5056299;28;20025;-71
2020/12/27 07:21:37;;;;;;;9.10;5.80;;;0.10;59.90;;;;;;5056251;28;20092;-71
2020/12/27 07:24:05;;;;;;;10.35;5.00;;;0.10;59.90;;;;;;5056598;28;20474;-71
2020/12/27 07:26:45;;;;;;;8.27;4.00;;;0.20;59.90;;;;;;5054697;28;20452;-71
2020/12/27 07:29:14;;;;;;;6.68;3.80;;;0.20;59.70;;;;;;5056274;28;20036;-71
2020/12/27 07:31:40;;;;;;;11.82;5.65;;;0.30;59.60;;;;;;5054878;28;20035;-71
2020/12/27 07:34:07;;;;;;;12.77;5.90;;;0.30;59.50;;;;;;5056099;28;20028;-71
2020/12/27 07:36:36;;;;;;;9.02;4.97;;;0.30;59.70;;;;;;5054755;28;20390;-71
2020/12/27 07:39:10;;;;;;;8.68;4.82;;;0.40;59.80;;;;;;5055982;28;20029;-71
2020/12/27 07:41:42;;;;;;;9.98;5.18;;;0.40;59.80;;;;;;5055934;28;20032;-71
2020/12/27 07:44:12;;;;;;;10.57;4.97;;;0.50;59.70;;;;;;5056161;28;20390;-71
2020/12/27 07:46:38;;;;;;;8.55;4.78;;;0.60;59.80;;;;;;5055988;28;20025;-71
2020/12/27 07:49:08;;;;;;;9.30;4.57;;;0.60;59.70;;;;;;5055756;28;20032;-71
2020/12/27 07:51:34;;;;;;;6.75;4.22;;;0.70;59.70;;;;;;5054604;28;20071;-71
2020/12/27 07:54:02;;;;;;;8.45;4.18;;;0.80;59.70;;;;;;5054376;28;20025;-71
2020/12/27 07:56:28;;;;;;;7.03;4.68;;;0.80;59.70;;;;;;5055652;28;20074;-71
2020/12/27 07:58:59;;;;;;;9.43;4.90;;;0.90;59.70;;;;;;5055474;28;20029;-71
2020/12/27 08:01:33;;;;;;;9.18;5.43;;;1.00;60.40;;;;;;5054343;28;20025;-71
2020/12/27 08:04:01;;;;;;;8.90;5.38;;;1.00;59.70;;;;;;5055774;28;20017;-71
2020/12/27 08:06:30;;;;;;;7.80;4.55;;;1.10;59.70;;;;;;5055367;28;20484;-71
2020/12/27 08:09:01;;;;;;;8.43;4.32;;;1.20;59.70;;;;;;5055353;28;20028;-71
2020/12/27 08:11:28;;;;;;;9.75;4.80;;;1.20;59.50;;;;;;5054356;28;20382;-71
2020/12/27 08:13:59;;;;;;;11.88;5.13;;;1.30;59.40;;;;;;5055662;28;20017;-71
2020/12/27 08:16:26;;;;;;;8.50;5.05;;;1.40;59.40;;;;;;5055236;28;20052;-71
2020/12/27 08:19:12;;;;;;;10.20;5.93;;;1.50;59.30;;;;;;5053948;28;20037;-71
2020/12/27 08:21:45;;;;;;;8.13;4.97;;;1.50;59.20;;;;;;5055147;28;20059;-71
2020/12/27 08:24:16;;;;;;;7.38;4.70;;;1.60;59.30;;;;;;5055190;28;20068;-71
2020/12/27 08:26:43;;;;;;;8.68;5.00;;;1.70;59.00;;;;;;5055181;28;20037;-71
2020/12/27 08:29:14;;;;;;;9.23;5.35;;;1.80;58.90;;;;;;5053737;28;20104;-71
2020/12/27 08:31:42;;;;;;;10.60;5.35;;;1.80;58.80;;;;;;5055126;28;20493;-71
2020/12/27 08:34:16;;;;;;;8.68;4.85;;;1.90;58.70;;;;;;5053521;28;20028;-71
2020/12/27 08:36:47;;;;;;;6.35;3.78;;;1.90;58.70;;;;;;5055134;28;20085;-72
2020/12/27 08:39:45;;;;;;;9.73;5.28;;;2.00;58.70;;;;;;5055022;28;20048;-71
2020/12/27 08:42:36;;;;;;;10.20;4.82;;;2.00;58.40;;;;;;5054671;28;20021;-71
2020/12/27 08:45:03;;;;;;;7.30;4.82;;;2.10;58.20;;;;;;5054824;28;20029;-71
2020/12/27 08:47:58;;;;;;;7.78;4.88;;;2.20;58.20;;;;;;5054656;28;20360;-71
2020/12/27 08:50:29;;;;;;;7.88;4.43;;;2.20;58.10;;;;;;5054734;28;20398;-71
2020/12/27 08:52:56;;;;;;;11.68;5.85;;;2.30;58.10;;;;;;5055013;28;20021;-72
2020/12/27 08:55:27;;;;;;;10.43;4.90;;;2.40;58.00;;;;;;5054615;28;20029;-72
2020/12/27 08:58:00;;;;;;;10.48;6.07;;;2.40;57.90;;;;;;5053186;28;20029;-72
2020/12/27 09:00:33;;;;;;;8.55;4.97;;;2.50;57.90;;;;;;5054657;28;20059;-72
2020/12/27 09:03:04;;;;;;;8.00;4.75;;;2.50;57.70;;;;;;5053076;28;20029;-72
2020/12/27 09:05:31;;;;;;;13.95;6.50;;;2.60;57.70;;;;;;5054322;28;20123;-72
2020/12/27 09:07:57;;;;;;;14.68;8.07;;;2.70;57.70;;;;;;5054834;28;20074;-72
2020/12/27 09:10:25;;;;;;;16.65;9.20;;;2.70;57.50;;;;;;5053985;28;20028;-71
2020/12/27 09:12:59;;;;;;;18.52;10.32;;;2.80;57.30;;;;;;5054187;28;20021;-71
2020/12/27 09:15:30;;;;;;;17.70;9.27;;;2.90;57.10;;;;;;5054484;28;20017;-71
2020/12/27 09:18:00;;;;;;;19.33;10.35;;;2.90;56.80;;;;;;5054421;28;20021;-72
2020/12/27 09:20:26;;;;;;;18.13;9.85;;;2.90;56.70;;;;;;5054086;28;20021;-72
2020/12/27 09:22:53;;;;;;;21.55;11.30;;;3.00;56.70;;;;;;5054231;28;20385;-72
2020/12/27 09:25:21;;;;;;;20.42;10.88;;;3.00;56.60;;;;;;5053854;28;20055;-72
2020/12/27 09:27:47;;;;;;;16.15;8.48;;;3.10;56.20;;;;;;5053938;28;20498;-72
2020/12/27 09:30:15;;;;;;;14.02;7.88;;;3.10;56.00;;;;;;5052796;28;20025;-72
2020/12/27 09:32:41;;;;;;;17.67;8.75;;;3.20;56.10;;;;;;5053906;28;20537;-72
2020/12/27 09:35:06;;;;;;;30.23;13.48;;;3.20;56.00;;;;;;5053912;28;20104;-72
2020/12/27 09:37:33;;;;;;;24.05;13.55;;;3.30;55.80;;;;;;5052680;28;20037;-72
2020/12/27 09:40:00;;;;;;;17.10;9.93;;;3.30;55.70;;;;;;5053898;28;20029;-71
2020/12/27 09:42:28;;;;;;;15.90;8.30;;;3.40;55.70;;;;;;5054097;28;20051;-72
2020/12/27 09:44:56;;;;;;;11.65;7.40;;;3.40;55.30;;;;;;5054644;28;20382;-72
2020/12/27 09:47:27;;;;;;;11.93;6.82;;;3.50;55.20;;;;;;5053921;28;20064;-72
2020/12/27 09:50:06;;;;;;;12.88;7.20;;;3.50;55.00;;;;;;5053492;28;20027;-72
2020/12/27 09:52:46;;;;;;;9.95;5.60;;;3.60;54.70;;;;;;5054079;28;20062;-72
2020/12/27 09:55:13;;;;;;;10.23;6.03;;;3.60;54.00;;;;;;5053559;28;20052;-72
2020/12/27 09:57:40;;;;;;;10.13;6.43;;;3.70;54.30;;;;;;5053560;28;20029;-72
2020/12/27 10:00:07;;;;;;;16.38;7.65;;;3.70;54.10;;;;;;5053601;28;20021;-72
2020/12/27 10:02:33;;;;;;;9.32;5.75;;;3.70;54.00;;;;;;5053895;28;20427;-72
2020/12/27 10:04:59;;;;;;;9.77;5.50;;;3.80;53.90;;;;;;5053591;28;20029;-72
2020/12/27 10:07:25;;;;;;;10.43;6.35;;;3.80;53.90;;;;;;5053489;28;20106;-72
2020/12/27 10:09:51;;;;;;;11.80;7.13;;;3.90;53.80;;;;;;5052321;28;20104;-72
2020/12/27 10:12:17;;;;;;;15.73;8.52;;;3.90;53.70;;;;;;5053399;28;20387;-72
2020/12/27 10:14:43;;;;;;;16.77;8.85;;;4.00;53.20;;;;;;5051973;28;20032;-72
2020/12/27 10:17:10;;;;;;;15.93;8.00;;;4.00;52.80;;;;;;5053584;28;20025;-72
2020/12/27 10:19:36;;;;;;;11.52;6.13;;;4.00;52.20;;;;;;5052090;28;20029;-72
2020/12/27 10:22:03;;;;;;;18.20;6.10;;;4.20;52.70;;;;;;5053350;28;20047;-72
2020/12/27 10:24:32;;;;;;;16.25;6.70;;;4.30;52.80;;;;;;5057273;28;20036;-72
2020/12/27 10:27:03;;;;;;;11.65;4.93;;;4.50;52.60;;;;;;5057300;28;20098;-71
2020/12/27 10:29:29;;;;;;;12.45;5.72;;;4.60;52.40;;;;;;5056158;28;20079;-72
2020/12/27 10:32:00;;;;;;;10.63;4.70;;;4.70;52.20;;;;;;5057256;28;20016;-71
2020/12/27 10:34:27;;;;;;;12.63;4.85;;;4.80;51.80;;;;;;5057177;28;20024;-71
2020/12/27 10:36:56;;;;;;;14.20;4.10;;;4.80;51.40;;;;;;5055889;28;20036;-71
2020/12/27 10:39:22;;;;;;;10.63;3.85;;;4.80;51.20;;;;;;5057077;28;20051;-72
2020/12/27 10:41:50;;;;;;;8.05;3.47;;;4.90;51.20;;;;;;5057331;28;20374;-71
2020/12/27 10:44:16;;;;;;;8.75;3.75;;;4.90;51.10;;;;;;5057002;28;20545;-71
2020/12/27 10:46:42;;;;;;;7.85;3.63;;;4.90;51.10;;;;;;5056915;28;20462;-71
2020/12/27 10:49:09;;;;;;;12.75;3.63;;;4.90;50.60;;;;;;5055595;28;20017;-71
2020/12/27 10:51:35;;;;;;;10.25;4.07;;;4.90;50.60;;;;;;5056842;28;20402;-72
2020/12/27 10:54:02;;;;;;;8.82;3.47;;;5.00;50.60;;;;;;5056900;28;20021;-72
2020/12/27 10:56:27;;;;;;;15.35;5.03;;;5.00;50.40;;;;;;5055673;28;20078;-71
2020/12/27 10:58:53;;;;;;;16.38;6.55;;;5.00;50.30;;;;;;5056762;28;20498;-71
2020/12/27 11:01:19;;;;;;;17.98;9.35;;;5.10;50.10;;;;;;5056752;28;20029;-71
2020/12/27 11:03:45;;;;;;;18.67;8.90;;;5.10;50.00;;;;;;5056617;28;20025;-71
2020/12/27 11:06:10;;;;;;;15.88;7.55;;;5.10;50.10;;;;;;5056540;28;20029;-71
2020/12/27 11:08:36;;;;;;;20.38;8.75;;;5.20;49.70;;;;;;5056527;28;20021;-71
2020/12/27 11:11:02;;;;;;;13.55;6.30;;;5.20;49.70;;;;;;5056455;28;20351;-71
2020/12/27 11:13:27;;;;;;;11.40;6.32;;;5.30;49.70;;;;;;5056557;28;20029;-71
2020/12/27 11:15:53;;;;;;;12.15;7.40;;;5.30;49.80;;;;;;5056598;28;20029;-72
2020/12/27 11:18:19;;;;;;;12.55;6.93;;;5.30;49.60;;;;;;5055380;28;20028;-71
2020/12/27 11:20:45;;;;;;;10.38;5.55;;;5.30;49.50;;;;;;5059915;28;20029;-71
2020/12/27 11:23:10;;;;;;;10.90;6.40;;;5.30;49.50;;;;;;5056197;28;20107;-71
2020/12/27 11:25:36;;;;;;;12.32;5.75;;;5.40;48.90;;;;;;5054382;28;20402;-72
2020/12/27 11:28:02;;;;;;;13.88;5.70;;;5.40;49.00;;;;;;5054742;28;20076;-71
2020/12/27 11:30:28;;;;;;;8.23;4.35;;;5.50;49.20;;;;;;5044857;28;20024;-72
2020/12/27 11:32:53;;;;;;;21.50;7.88;;;5.50;49.30;;;;;;5055952;28;20021;-72
2020/12/27 11:35:19;;;;;;;9.57;4.63;;;5.50;49.00;;;;;;5055711;28;20035;-71
2020/12/27 11:37:45;;;;;;;9.90;4.80;;;5.50;48.70;;;;;;5054803;28;20533;-71
2020/12/27 11:40:11;;;;;;;13.60;5.15;;;5.50;48.50;;;;;;5059153;28;20025;-71
2020/12/27 11:42:37;;;;;;;11.10;4.95;;;5.60;48.40;;;;;;5058132;28;20467;-71
2020/12/27 11:45:04;;;;;;;10.48;5.47;;;5.60;48.50;;;;;;5052810;28;20021;-71
2020/12/27 11:47:30;;;;;;;11.70;5.15;;;5.60;48.30;;;;;;5054299;28;20394;-71
2020/12/27 11:49:56;;;;;;;9.32;4.10;;;5.60;48.10;;;;;;5055793;28;20021;-71
2020/12/27 11:52:25;;;;;;;7.43;4.20;;;5.70;48.50;;;;;;5055711;28;20024;-71
2020/12/27 11:54:52;;;;;;;9.15;3.90;;;5.70;48.20;;;;;;5066274;28;20040;-71
2020/12/27 11:57:18;;;;;;;6.85;3.58;;;5.70;47.80;;;;;;5075605;28;20024;-71
2020/12/27 11:59:43;;;;;;;6.93;3.63;;;5.80;47.80;;;;;;5075648;28;20363;-71
2020/12/27 12:02:09;;;;;;;5.45;2.63;;;5.80;47.70;;;;;;5070453;28;20031;-72
2020/12/27 12:04:35;;;;;;;7.70;4.32;;;5.80;47.60;;;;;;5053122;28;20037;-71
2020/12/27 12:07:01;;;;;;;5.88;3.50;;;5.90;47.30;;;;;;5035684;28;20034;-72
2020/12/27 12:09:27;;;;;;;8.70;3.42;;;5.90;47.30;;;;;;5050851;28;20071;-72
2020/12/27 12:11:53;;;;;;;8.50;4.30;;;5.90;47.50;;;;;;5054293;28;20112;-71
2020/12/27 12:14:19;;;;;;;6.13;3.55;;;5.90;47.20;;;;;;5055309;28;20100;-72
2020/12/27 12:16:44;;;;;;;5.95;3.22;;;6.00;47.20;;;;;;5054775;28;20020;-71
2020/12/27 12:19:12;;;;;;;4.45;2.70;;;6.00;47.00;;;;;;5065805;28;20397;-71
2020/12/27 12:21:37;;;;;;;8.63;3.53;;;6.10;47.40;;;;;;5048447;28;20036;-71
2020/12/27 12:24:05;;;;;;;4.68;2.30;;;6.10;46.60;;;;;;5052459;28;20116;-71
2020/12/27 12:26:32;;;;;;;4.03;2.63;;;6.10;46.90;;;;;;5070280;28;20132;-71
2020/12/27 12:28:59;;;;;;;4.13;2.22;;;6.20;46.70;;;;;;5058824;28;20500;-71
2020/12/27 12:31:26;;;;;;;7.88;2.78;;;6.20;46.30;;;;;;5066915;28;20028;-72
2020/12/27 12:33:52;;;;;;;6.53;2.55;;;6.20;45.80;;;;;;5074969;28;20063;-72
2020/12/27 12:36:21;;;;;;;5.85;3.22;;;6.20;46.40;;;;;;5075208;28;20058;-71
2020/12/27 12:38:47;;;;;;;6.55;3.15;;;6.30;46.50;;;;;;5074835;28;20027;-71
2020/12/27 12:41:17;;;;;;;4.63;2.67;;;6.30;46.40;;;;;;5074823;28;20024;-72
2020/12/27 12:43:44;;;;;;;5.65;3.33;;;6.30;46.30;;;;;;5071472;28;20024;-72
2020/12/27 12:46:12;;;;;;;7.68;4.28;;;6.40;45.90;;;;;;5053501;28;20060;-72
2020/12/27 12:48:38;;;;;;;15.68;4.18;;;6.40;45.70;;;;;;5054901;28;20029;-72
2020/12/27 12:51:05;;;;;;;11.10;5.63;;;6.40;45.90;;;;;;5050347;28;20025;-72
2020/12/27 12:53:31;;;;;;;8.02;4.68;;;6.40;45.60;;;;;;5040690;28;20032;-71
2020/12/27 12:55:57;;;;;;;12.95;4.78;;;6.50;46.10;;;;;;5054526;28;20033;-71
2020/12/27 12:58:25;;;;;;;9.52;4.50;;;6.50;46.20;;;;;;5053190;28;20386;-71